createdAt,value
2018-08-06T00:00:17.145Z,1017.01
2018-08-06T00:01:17.100Z,1017.02
2018-08-06T00:02:17.057Z,1017.02
2018-08-06T00:03:17.021Z,1017.03
2018-08-06T00:04:16.976Z,1017.02
2018-08-06T00:05:18.944Z,1017.03
2018-08-06T00:06:16.896Z,1017.01
2018-08-06T00:07:16.861Z,1016.98
2018-08-06T00:08:16.814Z,1017.01
2018-08-06T00:09:16.773Z,1017.00
2018-08-06T00:10:16.736Z,1017.02
2018-08-06T00:11:16.698Z,1017.02
2018-08-06T00:12:16.653Z,1017.03
2018-08-06T00:13:16.617Z,1017.05
2018-08-06T00:14:16.573Z,1017.00
2018-08-06T00:15:16.535Z,1016.97
2018-08-06T00:16:16.490Z,1016.96
2018-08-06T00:17:16.452Z,1016.96
2018-08-06T00:18:16.411Z,1016.94
2018-08-06T00:19:16.373Z,1016.91
2018-08-06T00:20:16.330Z,1016.89
2018-08-06T00:21:16.289Z,1016.88
2018-08-06T00:22:16.249Z,1016.88
2018-08-06T00:23:16.211Z,1016.87
2018-08-06T00:24:16.171Z,1016.87
2018-08-06T00:25:16.138Z,1016.85
2018-08-06T00:26:16.092Z,1016.84
2018-08-06T00:27:16.051Z,1016.84
2018-08-06T00:28:16.012Z,1016.80
2018-08-06T00:29:15.970Z,1016.80
2018-08-06T00:30:15.932Z,1016.77
2018-08-06T00:31:15.890Z,1016.77
2018-08-06T00:32:15.856Z,1016.75
2018-08-06T00:33:15.810Z,1016.75
2018-08-06T00:34:15.772Z,1016.74
2018-08-06T00:35:15.730Z,1016.73
2018-08-06T00:36:15.686Z,1016.72
2018-08-06T00:37:15.649Z,1016.69
2018-08-06T00:38:15.605Z,1016.66
2018-08-06T00:39:15.564Z,1016.69
2018-08-06T00:40:15.523Z,1016.67
2018-08-06T00:41:15.484Z,1016.64
2018-08-06T00:42:15.440Z,1016.62
2018-08-06T00:43:15.399Z,1016.62
2018-08-06T00:44:15.362Z,1016.62
2018-08-06T00:45:15.323Z,1016.59
2018-08-06T00:46:15.279Z,1016.60
2018-08-06T00:47:15.238Z,1016.61
2018-08-06T00:48:15.199Z,1016.58
2018-08-06T00:49:15.158Z,1016.58
2018-08-06T00:50:15.117Z,1016.55
2018-08-06T00:51:15.078Z,1016.52
2018-08-06T00:52:15.037Z,1016.50
2018-08-06T00:53:14.999Z,1016.54
2018-08-06T00:54:14.957Z,1016.49
2018-08-06T00:55:14.915Z,1016.50
2018-08-06T00:56:14.874Z,1016.49
2018-08-06T00:57:14.835Z,1016.46
2018-08-06T00:58:14.792Z,1016.44
2018-08-06T00:59:14.750Z,1016.40
2018-08-06T01:00:14.717Z,1016.40
2018-08-06T01:01:14.670Z,1016.39
2018-08-06T01:02:14.630Z,1016.37
2018-08-06T01:03:14.589Z,1016.36
2018-08-06T01:04:14.546Z,1016.36
2018-08-06T01:05:14.519Z,1016.30
2018-08-06T01:06:19.277Z,1016.30
2018-08-06T01:07:14.428Z,1016.32
2018-08-06T01:08:14.385Z,1016.30
2018-08-06T01:09:14.344Z,1016.27
2018-08-06T01:10:14.309Z,1016.29
2018-08-06T01:11:14.267Z,1016.26
2018-08-06T01:12:14.222Z,1016.24
2018-08-06T01:13:14.180Z,1016.25
2018-08-06T01:14:14.143Z,1016.23
2018-08-06T01:15:14.098Z,1016.20
2018-08-06T01:16:14.059Z,1016.17
2018-08-06T01:17:14.019Z,1016.17
2018-08-06T01:18:13.978Z,1016.17
2018-08-06T01:19:13.940Z,1016.15
2018-08-06T01:20:13.900Z,1016.16
2018-08-06T01:21:13.856Z,1016.18
2018-08-06T01:22:13.815Z,1016.12
2018-08-06T01:23:13.774Z,1016.10
2018-08-06T01:24:13.733Z,1016.14
2018-08-06T01:25:13.692Z,1016.15
2018-08-06T01:26:13.653Z,1016.10
2018-08-06T01:27:13.612Z,1016.10
2018-08-06T01:28:13.569Z,1016.10
2018-08-06T01:29:13.534Z,1016.08
2018-08-06T01:30:13.491Z,1016.12
2018-08-06T01:31:13.450Z,1016.08
2018-08-06T01:32:13.415Z,1016.05
2018-08-06T01:33:13.377Z,1016.05
2018-08-06T01:34:13.328Z,1016.06
2018-08-06T01:35:13.294Z,1016.09
2018-08-06T01:36:13.245Z,1016.09
2018-08-06T01:37:13.204Z,1016.10
2018-08-06T01:38:13.164Z,1016.07
2018-08-06T01:39:13.122Z,1016.08
2018-08-06T01:40:13.089Z,1016.08
2018-08-06T01:41:13.041Z,1016.07
2018-08-06T01:42:13.003Z,1016.08
2018-08-06T01:43:12.960Z,1016.07
2018-08-06T01:44:12.920Z,1016.03
2018-08-06T01:45:12.882Z,1016.07
2018-08-06T01:46:12.870Z,1016.06
2018-08-06T01:47:12.796Z,1016.08
2018-08-06T01:48:12.762Z,1016.06
2018-08-06T01:49:12.722Z,1016.05
2018-08-06T01:50:12.683Z,1016.02
2018-08-06T01:51:12.653Z,1016.05
2018-08-06T01:52:12.591Z,1016.03
2018-08-06T01:53:12.551Z,1016.03
2018-08-06T01:54:12.516Z,1016.03
2018-08-06T01:55:12.472Z,1016.03
2018-08-06T01:56:12.429Z,1016.04
2018-08-06T01:57:12.392Z,1015.99
2018-08-06T01:58:12.352Z,1015.96
2018-08-06T01:59:12.312Z,1015.93
2018-08-06T02:00:12.267Z,1015.95
2018-08-06T02:01:12.224Z,1015.95
2018-08-06T02:02:12.188Z,1015.94
2018-08-06T02:03:12.144Z,1015.92
2018-08-06T02:04:12.101Z,1015.95
2018-08-06T02:05:12.063Z,1015.95
2018-08-06T02:06:12.023Z,1015.93
2018-08-06T02:07:11.993Z,1015.93
2018-08-06T02:08:11.937Z,1015.94
2018-08-06T02:09:11.899Z,1015.92
2018-08-06T02:10:11.859Z,1015.92
2018-08-06T02:11:11.817Z,1015.90
2018-08-06T02:12:11.774Z,1015.92
2018-08-06T02:13:11.735Z,1015.91
2018-08-06T02:14:11.693Z,1015.87
2018-08-06T02:15:11.662Z,1015.90
2018-08-06T02:16:11.612Z,1015.89
2018-08-06T02:17:11.572Z,1015.88
2018-08-06T02:18:11.533Z,1015.83
2018-08-06T02:19:11.489Z,1015.84
2018-08-06T02:20:11.455Z,1015.80
2018-08-06T02:21:11.408Z,1015.80
2018-08-06T02:22:11.367Z,1015.78
2018-08-06T02:23:11.325Z,1015.74
2018-08-06T02:24:11.287Z,1015.73
2018-08-06T02:25:11.248Z,1015.71
2018-08-06T02:26:11.208Z,1015.72
2018-08-06T02:27:11.165Z,1015.69
2018-08-06T02:28:11.128Z,1015.69
2018-08-06T02:29:11.081Z,1015.69
2018-08-06T02:30:11.043Z,1015.66
2018-08-06T02:31:10.998Z,1015.65
2018-08-06T02:32:10.960Z,1015.65
2018-08-06T02:33:10.918Z,1015.66
2018-08-06T02:34:10.883Z,1015.62
2018-08-06T02:35:10.883Z,1015.60
2018-08-06T02:36:10.793Z,1015.65
2018-08-06T02:37:10.753Z,1015.62
2018-08-06T02:38:10.715Z,1015.63
2018-08-06T02:39:10.670Z,1015.64
2018-08-06T02:40:10.630Z,1015.63
2018-08-06T02:41:10.590Z,1015.61
2018-08-06T02:42:10.550Z,1015.58
2018-08-06T02:43:10.508Z,1015.60
2018-08-06T02:44:10.465Z,1015.59
2018-08-06T02:45:10.427Z,1015.59
2018-08-06T02:46:10.384Z,1015.57
2018-08-06T02:47:10.343Z,1015.54
2018-08-06T02:48:10.301Z,1015.53
2018-08-06T02:49:10.260Z,1015.55
2018-08-06T02:50:10.244Z,1015.53
2018-08-06T02:51:10.196Z,1015.54
2018-08-06T02:52:10.136Z,1015.51
2018-08-06T02:53:10.099Z,1015.53
2018-08-06T02:54:10.054Z,1015.58
2018-08-06T02:55:10.017Z,1015.56
2018-08-06T02:56:09.973Z,1015.50
2018-08-06T02:57:09.933Z,1015.52
2018-08-06T02:58:09.890Z,1015.55
2018-08-06T02:59:09.850Z,1015.56
2018-08-06T03:00:09.836Z,1015.54
2018-08-06T03:01:09.768Z,1015.54
2018-08-06T03:02:09.726Z,1015.50
2018-08-06T03:03:09.684Z,1015.53
2018-08-06T03:04:09.644Z,1015.51
2018-08-06T03:05:09.602Z,1015.50
2018-08-06T03:06:09.564Z,1015.50
2018-08-06T03:07:09.522Z,1015.45
2018-08-06T03:08:09.481Z,1015.42
2018-08-06T03:09:09.440Z,1015.41
2018-08-06T03:10:09.513Z,1015.41
2018-08-06T03:11:09.358Z,1015.39
2018-08-06T03:12:09.313Z,1015.35
2018-08-06T03:13:09.274Z,1015.34
2018-08-06T03:14:09.232Z,1015.33
2018-08-06T03:15:09.191Z,1015.34
2018-08-06T03:16:09.148Z,1015.35
2018-08-06T03:17:09.118Z,1015.33
2018-08-06T03:18:09.068Z,1015.34
2018-08-06T03:19:09.029Z,1015.35
2018-08-06T03:20:08.985Z,1015.34
2018-08-06T03:21:08.945Z,1015.38
2018-08-06T03:22:08.903Z,1015.37
2018-08-06T03:23:08.861Z,1015.38
2018-08-06T03:24:08.821Z,1015.37
2018-08-06T03:25:08.782Z,1015.38
2018-08-06T03:26:08.742Z,1015.39
2018-08-06T03:27:08.701Z,1015.40
2018-08-06T03:28:08.656Z,1015.36
2018-08-06T03:29:08.615Z,1015.37
2018-08-06T03:30:08.576Z,1015.38
2018-08-06T03:31:08.537Z,1015.36
2018-08-06T03:32:08.489Z,1015.35
2018-08-06T03:33:08.450Z,1015.35
2018-08-06T03:34:08.451Z,1015.32
2018-08-06T03:35:08.420Z,1015.34
2018-08-06T03:36:08.397Z,1015.34
2018-08-06T03:37:08.395Z,1015.32
2018-08-06T03:38:08.276Z,1015.34
2018-08-06T03:39:08.205Z,1015.26
2018-08-06T03:40:08.173Z,1015.29
2018-08-06T03:41:08.118Z,1015.27
2018-08-06T03:42:08.080Z,1015.29
2018-08-06T03:43:08.037Z,1015.29
2018-08-06T03:44:07.995Z,1015.29
2018-08-06T03:45:07.955Z,1015.28
2018-08-06T03:46:07.911Z,1015.24
2018-08-06T03:47:07.873Z,1015.23
2018-08-06T03:48:07.830Z,1015.23
2018-08-06T03:49:07.790Z,1015.21
2018-08-06T03:50:07.746Z,1015.20
2018-08-06T03:51:07.707Z,1015.24
2018-08-06T03:52:07.667Z,1015.21
2018-08-06T03:53:07.627Z,1015.22
2018-08-06T03:54:07.582Z,1015.24
2018-08-06T03:55:07.543Z,1015.24
2018-08-06T03:56:07.508Z,1015.25
2018-08-06T03:57:07.457Z,1015.24
2018-08-06T03:58:07.416Z,1015.30
2018-08-06T03:59:07.388Z,1015.26
2018-08-06T04:00:07.342Z,1015.28
2018-08-06T04:01:07.291Z,1015.27
2018-08-06T04:02:07.256Z,1015.25
2018-08-06T04:03:07.213Z,1015.25
2018-08-06T04:04:07.170Z,1015.26
2018-08-06T04:05:07.129Z,1015.27
2018-08-06T04:06:07.087Z,1015.24
2018-08-06T04:07:07.045Z,1015.22
2018-08-06T04:08:07.002Z,1015.21
2018-08-06T04:09:06.961Z,1015.23
2018-08-06T04:10:06.925Z,1015.22
2018-08-06T04:11:06.880Z,1015.24
2018-08-06T04:12:06.838Z,1015.21
2018-08-06T04:13:06.797Z,1015.21
2018-08-06T04:14:06.758Z,1015.23
2018-08-06T04:15:06.715Z,1015.26
2018-08-06T04:16:06.676Z,1015.20
2018-08-06T04:17:06.633Z,1015.22
2018-08-06T04:18:06.590Z,1015.23
2018-08-06T04:19:06.551Z,1015.24
2018-08-06T04:20:06.510Z,1015.22
2018-08-06T04:21:06.469Z,1015.20
2018-08-06T04:22:06.426Z,1015.19
2018-08-06T04:23:06.386Z,1015.18
2018-08-06T04:24:06.343Z,1015.17
2018-08-06T04:25:06.305Z,1015.14
2018-08-06T04:26:06.261Z,1015.13
2018-08-06T04:27:06.219Z,1015.14
2018-08-06T04:28:06.178Z,1015.09
2018-08-06T04:29:06.139Z,1015.14
2018-08-06T04:30:06.096Z,1015.12
2018-08-06T04:31:06.056Z,1015.10
2018-08-06T04:32:06.012Z,1015.10
2018-08-06T04:33:06.007Z,1015.05
2018-08-06T04:34:05.929Z,1015.05
2018-08-06T04:35:05.888Z,1015.07
2018-08-06T04:36:05.851Z,1015.02
2018-08-06T04:37:05.808Z,1015.02
2018-08-06T04:38:05.765Z,1015.00
2018-08-06T04:39:05.726Z,1015.00
2018-08-06T04:40:05.681Z,1014.99
2018-08-06T04:41:05.641Z,1014.97
2018-08-06T04:42:05.604Z,1014.94
2018-08-06T04:43:05.561Z,1014.94
2018-08-06T04:44:05.515Z,1014.98
2018-08-06T04:45:05.474Z,1014.97
2018-08-06T04:46:05.526Z,1014.93
2018-08-06T04:47:05.396Z,1014.94
2018-08-06T04:48:05.349Z,1014.92
2018-08-06T04:49:05.310Z,1014.93
2018-08-06T04:50:05.289Z,1014.92
2018-08-06T04:51:05.225Z,1014.94
2018-08-06T04:52:05.188Z,1014.93
2018-08-06T04:53:05.143Z,1014.94
2018-08-06T04:54:05.102Z,1014.94
2018-08-06T04:55:05.060Z,1014.96
2018-08-06T04:56:05.021Z,1014.99
2018-08-06T04:57:04.976Z,1014.99
2018-08-06T04:58:04.935Z,1014.97
2018-08-06T04:59:04.893Z,1015.00
2018-08-06T05:00:04.853Z,1014.97
2018-08-06T05:01:04.811Z,1014.94
2018-08-06T05:02:04.773Z,1014.92
2018-08-06T05:03:04.729Z,1014.96
2018-08-06T05:04:04.686Z,1014.94
2018-08-06T05:05:04.646Z,1014.97
2018-08-06T05:06:04.605Z,1014.95
2018-08-06T05:07:04.592Z,1014.91
2018-08-06T05:08:04.521Z,1014.93
2018-08-06T05:09:04.482Z,1014.96
2018-08-06T05:10:04.443Z,1014.95
2018-08-06T05:11:04.396Z,1014.94
2018-08-06T05:12:04.358Z,1014.94
2018-08-06T05:13:04.322Z,1014.91
2018-08-06T05:14:04.274Z,1014.88
2018-08-06T05:15:04.231Z,1014.87
2018-08-06T05:16:04.189Z,1014.86
2018-08-06T05:17:04.148Z,1014.87
2018-08-06T05:18:04.107Z,1014.83
2018-08-06T05:19:04.068Z,1014.82
2018-08-06T05:20:04.026Z,1014.81
2018-08-06T05:21:03.983Z,1014.84
2018-08-06T05:22:03.960Z,1014.80
2018-08-06T05:23:03.902Z,1014.86
2018-08-06T05:24:03.862Z,1014.88
2018-08-06T05:25:03.823Z,1014.92
2018-08-06T05:26:03.780Z,1014.93
2018-08-06T05:27:03.737Z,1014.93
2018-08-06T05:28:03.698Z,1014.95
2018-08-06T05:29:03.656Z,1014.94
2018-08-06T05:30:03.613Z,1014.95
2018-08-06T05:31:03.575Z,1014.92
2018-08-06T05:32:03.532Z,1014.95
2018-08-06T05:33:03.489Z,1014.96
2018-08-06T05:34:03.447Z,1014.99
2018-08-06T05:35:03.424Z,1014.97
2018-08-06T05:36:03.365Z,1014.97
2018-08-06T05:37:03.330Z,1014.99
2018-08-06T05:38:03.283Z,1014.97
2018-08-06T05:39:03.248Z,1014.97
2018-08-06T05:40:03.278Z,1014.98
2018-08-06T05:41:03.163Z,1014.99
2018-08-06T05:42:03.118Z,1014.98
2018-08-06T05:43:03.080Z,1015.02
2018-08-06T05:44:03.038Z,1015.00
2018-08-06T05:45:02.997Z,1015.03
2018-08-06T05:46:02.954Z,1015.07
2018-08-06T05:47:02.915Z,1015.01
2018-08-06T05:48:02.873Z,1015.05
2018-08-06T05:49:02.832Z,1015.04
2018-08-06T05:50:02.794Z,1015.04
2018-08-06T05:51:02.749Z,1015.04
2018-08-06T05:52:02.709Z,1015.04
2018-08-06T05:53:02.668Z,1015.03
2018-08-06T05:54:02.628Z,1014.99
2018-08-06T05:55:02.586Z,1015.03
2018-08-06T05:56:02.545Z,1015.05
2018-08-06T05:57:02.504Z,1015.03
2018-08-06T05:58:02.466Z,1015.05
2018-08-06T05:59:02.427Z,1015.06
2018-08-06T06:00:02.386Z,1015.06
2018-08-06T06:01:02.341Z,1015.04
2018-08-06T06:02:02.303Z,1015.07
2018-08-06T06:03:02.262Z,1015.09
2018-08-06T06:04:02.221Z,1015.05
2018-08-06T06:05:02.179Z,1015.06
2018-08-06T06:06:02.144Z,1015.04
2018-08-06T06:07:02.100Z,1015.08
2018-08-06T06:08:02.060Z,1015.09
2018-08-06T06:09:02.018Z,1015.09
2018-08-06T06:10:01.977Z,1015.10
2018-08-06T06:11:01.936Z,1015.11
2018-08-06T06:12:01.909Z,1015.09
2018-08-06T06:13:01.852Z,1015.12
2018-08-06T06:14:01.813Z,1015.12
2018-08-06T06:15:01.776Z,1015.18
2018-08-06T06:16:01.777Z,1015.15
2018-08-06T06:17:01.706Z,1015.22
2018-08-06T06:18:01.651Z,1015.20
2018-08-06T06:19:01.621Z,1015.25
2018-08-06T06:20:01.569Z,1015.25
2018-08-06T06:21:01.531Z,1015.25
2018-08-06T06:22:01.487Z,1015.26
2018-08-06T06:23:01.448Z,1015.24
2018-08-06T06:24:01.406Z,1015.24
2018-08-06T06:25:01.365Z,1015.22
2018-08-06T06:26:01.327Z,1015.21
2018-08-06T06:27:01.285Z,1015.17
2018-08-06T06:28:01.249Z,1015.15
2018-08-06T06:29:01.204Z,1015.11
2018-08-06T06:30:01.167Z,1015.07
2018-08-06T06:31:01.130Z,1015.07
2018-08-06T06:32:01.111Z,1015.08
2018-08-06T06:33:01.045Z,1015.07
2018-08-06T06:34:01.006Z,1015.08
2018-08-06T06:35:00.967Z,1015.04
2018-08-06T06:36:00.923Z,1015.03
2018-08-06T06:37:00.887Z,1015.03
2018-08-06T06:38:00.848Z,1015.03
2018-08-06T06:39:00.803Z,1015.01
2018-08-06T06:40:00.764Z,1015.04
2018-08-06T06:41:00.721Z,1014.98
2018-08-06T06:42:00.683Z,1014.98
2018-08-06T06:43:00.644Z,1014.97
2018-08-06T06:44:00.607Z,1015.02
2018-08-06T06:45:00.560Z,1015.01
2018-08-06T06:46:00.530Z,1014.98
2018-08-06T06:47:00.482Z,1015.02
2018-08-06T06:48:00.446Z,1015.01
2018-08-06T06:49:00.532Z,1014.98
2018-08-06T06:50:00.363Z,1015.00
2018-08-06T06:51:00.329Z,1014.98
2018-08-06T06:52:00.282Z,1014.98
2018-08-06T06:53:00.256Z,1014.97
2018-08-06T06:54:00.201Z,1014.92
2018-08-06T06:55:00.162Z,1014.91
2018-08-06T06:56:00.124Z,1014.95
2018-08-06T06:57:00.088Z,1014.96
2018-08-06T06:58:00.043Z,1014.97
2018-08-06T06:59:00.017Z,1015.01
2018-08-06T06:59:59.982Z,1014.97
2018-08-06T07:00:59.926Z,1014.99
2018-08-06T07:01:59.882Z,1014.95
2018-08-06T07:02:59.843Z,1014.93
2018-08-06T07:03:59.806Z,1014.93
2018-08-06T07:04:59.767Z,1014.91
2018-08-06T07:05:59.725Z,1014.92
2018-08-06T07:06:59.685Z,1014.85
2018-08-06T07:07:59.647Z,1014.97
2018-08-06T07:08:59.608Z,1014.96
2018-08-06T07:09:59.565Z,1014.93
2018-08-06T07:10:59.526Z,1014.96
2018-08-06T07:11:59.487Z,1014.94
2018-08-06T07:12:59.445Z,1014.93
2018-08-06T07:13:59.456Z,1014.90
2018-08-06T07:14:59.372Z,1014.89
2018-08-06T07:15:59.329Z,1014.86
2018-08-06T07:16:59.290Z,1014.78
2018-08-06T07:17:59.249Z,1014.88
2018-08-06T07:18:59.213Z,1014.78
2018-08-06T07:19:59.170Z,1014.82
2018-08-06T07:20:59.132Z,1014.80
2018-08-06T07:21:59.091Z,1014.83
2018-08-06T07:22:59.056Z,1014.79
2018-08-06T07:23:59.012Z,1014.82
2018-08-06T07:24:58.975Z,1014.83
2018-08-06T07:25:58.985Z,1014.80
2018-08-06T07:26:58.895Z,1014.84
2018-08-06T07:27:58.855Z,1014.81
2018-08-06T07:28:58.821Z,1014.79
2018-08-06T07:29:58.779Z,1014.77
2018-08-06T07:30:58.737Z,1014.74
2018-08-06T07:31:58.701Z,1014.70
2018-08-06T07:32:58.662Z,1014.71
2018-08-06T07:33:58.621Z,1014.68
2018-08-06T07:34:58.584Z,1014.65
2018-08-06T07:35:58.545Z,1014.61
2018-08-06T07:36:58.511Z,1014.59
2018-08-06T07:37:58.472Z,1014.59
2018-08-06T07:38:58.426Z,1014.56
2018-08-06T07:39:58.416Z,1014.56
2018-08-06T07:40:58.355Z,1014.54
2018-08-06T07:41:58.313Z,1014.50
2018-08-06T07:42:58.280Z,1014.51
2018-08-06T07:43:58.233Z,1014.43
2018-08-06T07:44:58.196Z,1014.46
2018-08-06T07:45:58.154Z,1014.47
2018-08-06T07:46:58.149Z,1014.49
2018-08-06T07:47:58.102Z,1014.50
2018-08-06T07:48:58.042Z,1014.49
2018-08-06T07:49:58.054Z,1014.51
2018-08-06T07:50:57.961Z,1014.52
2018-08-06T07:51:57.923Z,1014.51
2018-08-06T07:52:57.883Z,1014.47
2018-08-06T07:53:57.850Z,1014.56
2018-08-06T07:54:57.805Z,1014.51
2018-08-06T07:55:57.774Z,1014.51
2018-08-06T07:56:57.732Z,1014.47
2018-08-06T07:57:57.689Z,1014.50
2018-08-06T07:58:57.655Z,1014.39
2018-08-06T07:59:57.618Z,1014.41
2018-08-06T08:00:57.575Z,1014.39
2018-08-06T08:01:57.543Z,1014.35
2018-08-06T08:02:57.498Z,1014.32
2018-08-06T08:03:57.465Z,1014.38
2018-08-06T08:04:57.427Z,1014.34
2018-08-06T08:05:57.386Z,1014.35
2018-08-06T08:06:57.349Z,1014.35
2018-08-06T08:07:57.306Z,1014.31
2018-08-06T08:08:57.304Z,1014.27
2018-08-06T08:09:57.231Z,1014.30
2018-08-06T08:10:57.196Z,1014.27
2018-08-06T08:11:57.175Z,1014.26
2018-08-06T08:12:57.124Z,1014.29
2018-08-06T08:13:57.084Z,1014.26
2018-08-06T08:14:57.044Z,1014.26
2018-08-06T08:15:57.006Z,1014.25
2018-08-06T08:16:56.972Z,1014.22
2018-08-06T08:17:56.934Z,1014.26
2018-08-06T08:18:56.897Z,1014.25
2018-08-06T08:19:56.869Z,1014.23
2018-08-06T08:20:56.822Z,1014.24
2018-08-06T08:21:56.786Z,1014.26
2018-08-06T08:22:56.744Z,1014.19
2018-08-06T08:23:56.706Z,1014.19
2018-08-06T08:24:56.671Z,1014.21
2018-08-06T08:25:56.635Z,1014.22
2018-08-06T08:26:56.595Z,1014.21
2018-08-06T08:27:56.561Z,1014.18
2018-08-06T08:28:56.525Z,1014.15
2018-08-06T08:29:56.486Z,1014.11
2018-08-06T08:30:56.450Z,1014.14
2018-08-06T08:31:56.419Z,1014.08
2018-08-06T08:32:56.375Z,1014.10
2018-08-06T08:33:56.405Z,1014.07
2018-08-06T08:34:56.300Z,1014.06
2018-08-06T08:35:56.268Z,1014.06
2018-08-06T08:36:56.233Z,1014.06
2018-08-06T08:37:56.193Z,1014.03
2018-08-06T08:38:56.167Z,1014.03
2018-08-06T08:39:56.125Z,1014.00
2018-08-06T08:40:56.084Z,1014.02
2018-08-06T08:41:56.049Z,1013.98
2018-08-06T08:42:56.016Z,1013.98
2018-08-06T08:43:55.972Z,1013.97
2018-08-06T08:44:55.943Z,1013.95
2018-08-06T08:45:55.902Z,1013.91
2018-08-06T08:46:55.866Z,1013.95
2018-08-06T08:47:55.828Z,1013.88
2018-08-06T08:48:55.799Z,1013.91
2018-08-06T08:49:55.765Z,1013.92
2018-08-06T08:50:55.722Z,1013.91
2018-08-06T08:51:55.683Z,1013.97
2018-08-06T08:52:55.649Z,1013.93
2018-08-06T08:53:55.612Z,1013.90
2018-08-06T08:54:55.578Z,1013.89
2018-08-06T08:55:55.540Z,1013.88
2018-08-06T08:56:55.506Z,1013.86
2018-08-06T08:57:55.468Z,1013.86
2018-08-06T08:58:55.606Z,1013.85
2018-08-06T08:59:55.402Z,1013.83
2018-08-06T09:00:55.362Z,1013.83
2018-08-06T09:01:55.328Z,1013.80
2018-08-06T09:02:55.294Z,1013.74
2018-08-06T09:03:55.255Z,1013.77
2018-08-06T09:04:55.223Z,1013.80
2018-08-06T09:05:55.183Z,1013.77
2018-08-06T09:06:55.148Z,1013.74
2018-08-06T09:07:55.114Z,1013.75
2018-08-06T09:08:55.078Z,1013.80
2018-08-06T09:09:55.042Z,1013.80
2018-08-06T09:10:55.007Z,1013.79
2018-08-06T09:11:54.973Z,1013.80
2018-08-06T09:12:54.937Z,1013.73
2018-08-06T09:13:54.922Z,1013.72
2018-08-06T09:14:54.869Z,1013.72
2018-08-06T09:15:54.832Z,1013.68
2018-08-06T09:16:54.796Z,1013.62
2018-08-06T09:17:54.761Z,1013.62
2018-08-06T09:18:54.727Z,1013.64
2018-08-06T09:19:54.691Z,1013.61
2018-08-06T09:20:54.657Z,1013.61
2018-08-06T09:21:54.622Z,1013.61
2018-08-06T09:22:54.629Z,1013.56
2018-08-06T09:23:54.552Z,1013.59
2018-08-06T09:24:54.532Z,1013.58
2018-08-06T09:25:54.500Z,1013.62
2018-08-06T09:26:54.450Z,1013.53
2018-08-06T09:27:54.484Z,1013.59
2018-08-06T09:28:54.381Z,1013.58
2018-08-06T09:29:54.348Z,1013.58
2018-08-06T09:30:54.311Z,1013.57
2018-08-06T09:31:54.277Z,1013.58
2018-08-06T09:32:54.247Z,1013.63
2018-08-06T09:33:54.274Z,1013.58
2018-08-06T09:34:54.180Z,1013.58
2018-08-06T09:35:54.139Z,1013.54
2018-08-06T09:36:54.107Z,1013.54
2018-08-06T09:37:54.069Z,1013.48
2018-08-06T09:38:54.036Z,1013.47
2018-08-06T09:39:54.004Z,1013.46
2018-08-06T09:40:53.970Z,1013.43
2018-08-06T09:41:53.931Z,1013.43
2018-08-06T09:42:53.938Z,1013.40
2018-08-06T09:43:53.868Z,1013.43
2018-08-06T09:44:53.834Z,1013.42
2018-08-06T09:45:53.802Z,1013.41
2018-08-06T09:46:53.765Z,1013.38
2018-08-06T09:47:53.725Z,1013.37
2018-08-06T09:48:53.694Z,1013.32
2018-08-06T09:49:53.662Z,1013.30
2018-08-06T09:50:53.626Z,1013.25
2018-08-06T09:51:53.593Z,1013.25
2018-08-06T09:52:53.563Z,1013.26
2018-08-06T09:53:53.528Z,1013.22
2018-08-06T09:54:53.492Z,1013.22
2018-08-06T09:55:53.462Z,1013.19
2018-08-06T09:56:53.421Z,1013.19
2018-08-06T09:57:53.393Z,1013.22
2018-08-06T09:58:53.370Z,1013.16
2018-08-06T09:59:53.407Z,1013.13
2018-08-06T10:00:53.368Z,1013.10
2018-08-06T10:01:53.329Z,1013.05
2018-08-06T10:02:53.257Z,1013.13
2018-08-06T10:03:53.183Z,1013.05
2018-08-06T10:04:53.152Z,1013.03
2018-08-06T10:05:53.323Z,1012.98
2018-08-06T10:06:53.086Z,1012.98
2018-08-06T10:07:53.052Z,1012.94
2018-08-06T10:08:53.023Z,1012.95
2018-08-06T10:09:52.985Z,1013.00
2018-08-06T10:10:52.957Z,1012.90
2018-08-06T10:11:53.003Z,1012.88
2018-08-06T10:12:52.885Z,1012.83
2018-08-06T10:13:52.849Z,1012.84
2018-08-06T10:14:52.819Z,1012.86
2018-08-06T10:15:52.788Z,1012.83
2018-08-06T10:16:52.781Z,1012.85
2018-08-06T10:17:52.718Z,1012.84
2018-08-06T10:18:52.764Z,1012.88
2018-08-06T10:19:52.654Z,1012.86
2018-08-06T10:20:52.623Z,1012.88
2018-08-06T10:21:52.589Z,1012.86
2018-08-06T10:22:52.559Z,1012.88
2018-08-06T10:23:52.533Z,1012.86
2018-08-06T10:24:52.485Z,1012.82
2018-08-06T10:25:52.457Z,1012.87
2018-08-06T10:26:52.422Z,1012.85
2018-08-06T10:27:52.390Z,1012.81
2018-08-06T10:28:52.356Z,1012.82
2018-08-06T10:29:52.326Z,1012.85
2018-08-06T10:30:52.291Z,1012.86
2018-08-06T10:31:52.261Z,1012.78
2018-08-06T10:32:52.225Z,1012.78
2018-08-06T10:33:52.196Z,1012.75
2018-08-06T10:34:52.164Z,1012.74
2018-08-06T10:35:52.125Z,1012.71
2018-08-06T10:36:52.094Z,1012.64
2018-08-06T10:37:52.064Z,1012.63
2018-08-06T10:38:52.028Z,1012.55
2018-08-06T10:39:51.994Z,1012.64
2018-08-06T10:40:51.962Z,1012.61
2018-08-06T10:41:51.931Z,1012.64
2018-08-06T10:42:51.899Z,1012.65
2018-08-06T10:43:51.871Z,1012.62
2018-08-06T10:44:51.831Z,1012.62
2018-08-06T10:45:51.803Z,1012.64
2018-08-06T10:46:51.774Z,1012.61
2018-08-06T10:47:51.736Z,1012.61
2018-08-06T10:48:51.702Z,1012.55
2018-08-06T10:49:51.670Z,1012.53
2018-08-06T10:50:51.638Z,1012.57
2018-08-06T10:51:51.604Z,1012.51
2018-08-06T10:52:51.575Z,1012.51
2018-08-06T10:53:51.547Z,1012.53
2018-08-06T10:54:51.515Z,1012.50
2018-08-06T10:55:51.481Z,1012.47
2018-08-06T10:56:51.443Z,1012.50
2018-08-06T10:57:51.408Z,1012.47
2018-08-06T10:58:51.380Z,1012.42
2018-08-06T10:59:51.341Z,1012.41
2018-08-06T11:00:51.324Z,1012.39
2018-08-06T11:01:51.285Z,1012.38
2018-08-06T11:02:51.258Z,1012.31
2018-08-06T11:03:51.214Z,1012.36
2018-08-06T11:04:51.185Z,1012.31
2018-08-06T11:05:51.150Z,1012.31
2018-08-06T11:06:51.117Z,1012.32
2018-08-06T11:07:51.085Z,1012.30
2018-08-06T11:08:51.093Z,1012.30
2018-08-06T11:09:51.019Z,1012.31
2018-08-06T11:10:50.987Z,1012.28
2018-08-06T11:11:50.955Z,1012.30
2018-08-06T11:12:50.922Z,1012.26
2018-08-06T11:13:50.889Z,1012.23
2018-08-06T11:14:50.861Z,1012.22
2018-08-06T11:15:50.825Z,1012.23
2018-08-06T11:16:50.794Z,1012.22
2018-08-06T11:17:50.760Z,1012.20
2018-08-06T11:18:50.729Z,1012.24
2018-08-06T11:19:50.696Z,1012.24
2018-08-06T11:20:50.668Z,1012.17
2018-08-06T11:21:50.634Z,1012.17
2018-08-06T11:22:50.604Z,1012.13
2018-08-06T11:23:50.569Z,1012.06
2018-08-06T11:24:50.537Z,1012.08
2018-08-06T11:25:50.513Z,1012.12
2018-08-06T11:26:50.475Z,1012.08
2018-08-06T11:27:50.443Z,1012.07
2018-08-06T11:28:50.410Z,1012.10
2018-08-06T11:29:50.378Z,1012.05
2018-08-06T11:30:50.347Z,1012.02
2018-08-06T11:31:50.316Z,1012.00
2018-08-06T11:32:50.284Z,1011.99
2018-08-06T11:33:50.252Z,1011.94
2018-08-06T11:34:50.222Z,1011.95
2018-08-06T11:35:50.188Z,1011.99
2018-08-06T11:36:50.268Z,1011.98
2018-08-06T11:37:50.128Z,1011.99
2018-08-06T11:38:50.099Z,1012.02
2018-08-06T11:39:50.084Z,1012.02
2018-08-06T11:40:50.034Z,1012.01
2018-08-06T11:41:50.008Z,1012.00
2018-08-06T11:42:49.973Z,1011.97
2018-08-06T11:43:49.940Z,1011.98
2018-08-06T11:44:49.908Z,1011.98
2018-08-06T11:45:49.880Z,1011.90
2018-08-06T11:46:49.847Z,1011.87
2018-08-06T11:47:49.815Z,1011.83
2018-08-06T11:48:49.796Z,1011.88
2018-08-06T11:49:49.753Z,1011.89
2018-08-06T11:50:49.720Z,1011.86
2018-08-06T11:51:49.692Z,1011.81
2018-08-06T11:52:49.659Z,1011.84
2018-08-06T11:53:49.628Z,1011.86
2018-08-06T11:54:49.596Z,1011.85
2018-08-06T11:55:49.566Z,1011.85
2018-08-06T11:56:49.705Z,1011.85
2018-08-06T11:57:49.505Z,1011.80
2018-08-06T11:58:49.475Z,1011.81
2018-08-06T11:59:49.449Z,1011.76
2018-08-06T12:00:49.412Z,1011.81
2018-08-06T12:01:49.422Z,1011.72
2018-08-06T12:02:49.369Z,1011.71
2018-08-06T12:03:49.323Z,1011.63
2018-08-06T12:04:49.302Z,1011.68